Oak Ridge, New Jersey
Current Conditions -  °F | °C
As of 9:53 PM on Wednesday 26 Nov 2014 (Local Time) from KFWN Reporting Station
Light Snow Light Snow  
Wind Chill: 30°   Ceiling: 3900
Heat Index: 34°   Visibility: 2.5mi
Dew Point: 31°   Wind: 5mph
Humidity: 89%   Direction: NA
Pressure: 29.84"   Gusts: NA
Location:  41.05°N, 74.49°W
Report Text: KFWN 270253Z AUTO VRB04KT 2 1/2SM -SN BR OVC039 01/M01 A2984 RMK AO2 UPB08E13SNE08B13 SLP108 P0001 60005 T00111006 58010
Loading
Personal Weather Stations






























Interactive Weather Map New forecast layout! Learn more

10-Day Weather Forecast

Advertisements
Track Severe Weather on mobile